sensor_id;sensor_type;location;lat;lon;timestamp;pressure;altitude;pressure_sealevel;temperature;humidity
70815;BME280;58428;49.478;10.986;2022-10-31T00:00:07;98912.84;;;11.91;100.00
70815;BME280;58428;49.478;10.986;2022-10-31T00:02:33;98910.94;;;11.83;100.00
70815;BME280;58428;49.478;10.986;2022-10-31T00:05:01;98912.38;;;11.73;100.00
70815;BME280;58428;49.478;10.986;2022-10-31T00:07:27;98923.41;;;11.59;100.00
70815;BME280;58428;49.478;10.986;2022-10-31T00:09:52;98919.25;;;11.53;100.00
70815;BME280;58428;49.478;10.986;2022-10-31T00:12:17;98919.13;;;11.50;100.00
70815;BME280;58428;49.478;10.986;2022-10-31T00:14:43;98921.34;;;11.56;100.00
70815;BME280;58428;49.478;10.986;2022-10-31T00:17:08;98923.41;;;11.51;100.00
70815;BME280;58428;49.478;10.986;2022-10-31T00:19:34;98915.94;;;11.56;100.00
70815;BME280;58428;49.478;10.986;2022-10-31T00:22:02;98915.75;;;11.53;100.00
70815;BME280;58428;49.478;10.986;2022-10-31T00:24:28;98911.47;;;11.52;100.00
70815;BME280;58428;49.478;10.986;2022-10-31T00:26:54;98923.13;;;11.44;100.00
70815;BME280;58428;49.478;10.986;2022-10-31T00:29:20;98925.16;;;11.38;100.00
70815;BME280;58428;49.478;10.986;2022-10-31T00:31:46;98923.22;;;11.31;100.00
70815;BME280;58428;49.478;10.986;2022-10-31T00:34:11;98923.53;;;11.29;100.00
70815;BME280;58428;49.478;10.986;2022-10-31T00:36:37;98929.44;;;11.23;100.00
70815;BME280;58428;49.478;10.986;2022-10-31T00:39:02;98923.84;;;11.19;100.00
70815;BME280;58428;49.478;10.986;2022-10-31T00:41:28;98926.09;;;11.17;100.00
70815;BME280;58428;49.478;10.986;2022-10-31T00:43:54;98931.94;;;11.11;100.00
70815;BME280;58428;49.478;10.986;2022-10-31T00:46:21;98928.63;;;11.05;100.00
70815;BME280;58428;49.478;10.986;2022-10-31T00:48:47;98920.31;;;11.02;100.00
70815;BME280;58428;49.478;10.986;2022-10-31T00:51:12;98920.63;;;11.01;100.00
70815;BME280;58428;49.478;10.986;2022-10-31T00:53:38;98920.31;;;10.94;100.00
70815;BME280;58428;49.478;10.986;2022-10-31T00:56:04;98920.63;;;10.92;100.00
70815;BME280;58428;49.478;10.986;2022-10-31T00:58:29;98928.59;;;10.97;100.00
70815;BME280;58428;49.478;10.986;2022-10-31T01:00:56;98922.38;;;10.97;100.00
70815;BME280;58428;49.478;10.986;2022-10-31T01:03:27;98922.06;;;10.98;100.00
70815;BME280;58428;49.478;10.986;2022-10-31T01:06:02;98918.56;;;10.98;100.00
70815;BME280;58428;49.478;10.986;2022-10-31T01:08:29;98912.69;;;10.96;100.00
70815;BME280;58428;49.478;10.986;2022-10-31T01:11:12;98918.41;;;10.94;100.00
70815;BME280;58428;49.478;10.986;2022-10-31T01:13:38;98923.16;;;10.89;100.00
70815;BME280;58428;49.478;10.986;2022-10-31T01:16:06;98922.50;;;10.83;100.00
70815;BME280;58428;49.478;10.986;2022-10-31T01:18:32;98915.66;;;10.77;100.00
70815;BME280;58428;49.478;10.986;2022-10-31T01:21:04;98929.34;;;10.72;100.00
70815;BME280;58428;49.478;10.986;2022-10-31T01:23:30;98930.44;;;10.71;100.00
70815;BME280;58428;49.478;10.986;2022-10-31T01:26:04;98929.34;;;10.72;100.00
70815;BME280;58428;49.478;10.986;2022-10-31T01:28:30;98928.53;;;10.72;100.00
70815;BME280;58428;49.478;10.986;2022-10-31T01:30:55;98922.31;;;10.71;100.00
70815;BME280;58428;49.478;10.986;2022-10-31T01:33:24;98918.16;;;10.65;100.00
70815;BME280;58428;49.478;10.986;2022-10-31T01:35:50;98923.28;;;10.67;100.00
70815;BME280;58428;49.478;10.986;2022-10-31T01:38:15;98928.88;;;10.70;100.00
70815;BME280;58428;49.478;10.986;2022-10-31T01:40:40;98924.72;;;10.73;100.00
70815;BME280;58428;49.478;10.986;2022-10-31T01:43:11;98927.75;;;10.80;100.00
70815;BME280;58428;49.478;10.986;2022-10-31T01:45:39;98929.06;;;10.82;100.00
70815;BME280;58428;49.478;10.986;2022-10-31T01:48:13;98927.13;;;10.83;100.00
70815;BME280;58428;49.478;10.986;2022-10-31T01:50:41;98930.16;;;10.81;100.00
70815;BME280;58428;49.478;10.986;2022-10-31T01:53:08;98926.78;;;10.76;100.00
70815;BME280;58428;49.478;10.986;2022-10-31T01:55:40;98917.56;;;10.77;100.00
70815;BME280;58428;49.478;10.986;2022-10-31T01:58:14;98914.69;;;10.82;100.00
70815;BME280;58428;49.478;10.986;2022-10-31T02:00:45;98921.38;;;10.76;100.00
70815;BME280;58428;49.478;10.986;2022-10-31T02:03:13;98917.41;;;10.73;100.00
70815;BME280;58428;49.478;10.986;2022-10-31T02:05:39;98913.75;;;10.78;100.00
70815;BME280;58428;49.478;10.986;2022-10-31T02:08:30;98918.72;;;10.84;100.00
70815;BME280;58428;49.478;10.986;2022-10-31T02:10:58;98917.09;;;10.75;100.00
70815;BME280;58428;49.478;10.986;2022-10-31T02:13:25;98917.09;;;10.75;100.00
70815;BME280;58428;49.478;10.986;2022-10-31T02:15:56;98921.06;;;10.69;100.00
70815;BME280;58428;49.478;10.986;2022-10-31T02:18:23;98920.53;;;10.59;100.00
70815;BME280;58428;49.478;10.986;2022-10-31T02:27:32;98921.78;;;10.53;100.00
70815;BME280;58428;49.478;10.986;2022-10-31T02:30:21;98918.38;;;10.39;100.00
70815;BME280;58428;49.478;10.986;2022-10-31T02:33:10;98918.72;;;10.37;100.00
70815;BME280;58428;49.478;10.986;2022-10-31T02:38:29;98909.78;;;10.37;100.00
70815;BME280;58428;49.478;10.986;2022-10-31T02:46:49;98912.66;;;10.32;100.00
70815;BME280;58428;49.478;10.986;2022-10-31T02:52:02;98914.69;;;10.27;100.00
70815;BME280;58428;49.478;10.986;2022-10-31T02:54:28;98909.59;;;10.33;100.00
70815;BME280;58428;49.478;10.986;2022-10-31T02:57:14;98908.81;;;10.33;100.00
70815;BME280;58428;49.478;10.986;2022-10-31T02:59:47;98906.75;;;10.30;100.00
70815;BME280;58428;49.478;10.986;2022-10-31T03:02:28;98895.59;;;10.31;100.00
70815;BME280;58428;49.478;10.986;2022-10-31T03:07:59;98899.31;;;10.44;100.00
70815;BME280;58428;49.478;10.986;2022-10-31T03:10:55;98905.69;;;10.48;100.00
70815;BME280;58428;49.478;10.986;2022-10-31T03:18:52;98903.13;;;10.43;100.00
70815;BME280;58428;49.478;10.986;2022-10-31T03:21:54;98903.28;;;10.38;100.00
70815;BME280;58428;49.478;10.986;2022-10-31T03:24:24;98898.00;;;10.33;100.00
70815;BME280;58428;49.478;10.986;2022-10-31T03:26:53;98902.44;;;10.29;100.00
70815;BME280;58428;49.478;10.986;2022-10-31T03:29:23;98904.97;;;10.26;100.00
70815;BME280;58428;49.478;10.986;2022-10-31T03:31:54;98902.72;;;10.19;100.00
70815;BME280;58428;49.478;10.986;2022-10-31T03:34:22;98901.75;;;10.15;100.00
70815;BME280;58428;49.478;10.986;2022-10-31T03:36:51;98912.06;;;10.13;100.00
70815;BME280;58428;49.478;10.986;2022-10-31T03:39:20;98905.22;;;10.07;100.00
70815;BME280;58428;49.478;10.986;2022-10-31T03:42:01;98913.31;;;10.07;100.00
70815;BME280;58428;49.478;10.986;2022-10-31T03:44:33;98917.94;;;10.07;100.00
70815;BME280;58428;49.478;10.986;2022-10-31T03:47:00;98916.97;;;10.03;100.00
70815;BME280;58428;49.478;10.986;2022-10-31T03:49:27;98924.25;;;10.02;100.00
70815;BME280;58428;49.478;10.986;2022-10-31T03:52:26;98929.50;;;9.99;100.00
70815;BME280;58428;49.478;10.986;2022-10-31T03:54:58;98932.81;;;9.96;100.00
70815;BME280;58428;49.478;10.986;2022-10-31T04:00:16;98928.81;;;9.93;100.00
70815;BME280;58428;49.478;10.986;2022-10-31T04:02:51;98922.22;;;9.86;100.00
70815;BME280;58428;49.478;10.986;2022-10-31T04:05:19;98924.50;;;9.92;100.00
70815;BME280;58428;49.478;10.986;2022-10-31T04:07:47;98925.91;;;9.90;100.00
70815;BME280;58428;49.478;10.986;2022-10-31T04:10:15;98925.34;;;9.93;100.00
70815;BME280;58428;49.478;10.986;2022-10-31T04:12:45;98919.97;;;10.01;100.00
70815;BME280;58428;49.478;10.986;2022-10-31T04:15:13;98919.66;;;10.03;100.00
70815;BME280;58428;49.478;10.986;2022-10-31T04:17:40;98920.22;;;9.92;100.00
70815;BME280;58428;49.478;10.986;2022-10-31T04:20:07;98914.31;;;9.90;100.00
70815;BME280;58428;49.478;10.986;2022-10-31T04:22:36;98923.59;;;9.97;100.00
70815;BME280;58428;49.478;10.986;2022-10-31T04:25:01;98919.47;;;9.99;100.00
70815;BME280;58428;49.478;10.986;2022-10-31T04:27:26;98920.22;;;9.92;100.00
70815;BME280;58428;49.478;10.986;2022-10-31T04:29:53;98920.50;;;9.90;100.00
70815;BME280;58428;49.478;10.986;2022-10-31T04:32:18;98921.72;;;9.84;100.00
70815;BME280;58428;49.478;10.986;2022-10-31T04:34:44;98919.47;;;9.78;100.00
70815;BME280;58428;49.478;10.986;2022-10-31T04:37:13;98915.53;;;9.84;100.00
70815;BME280;58428;49.478;10.986;2022-10-31T04:39:41;98916.31;;;9.84;100.00
70815;BME280;58428;49.478;10.986;2022-10-31T04:42:06;98911.59;;;9.90;100.00
70815;BME280;58428;49.478;10.986;2022-10-31T04:44:32;98914.19;;;9.94;100.00
70815;BME280;58428;49.478;10.986;2022-10-31T04:46:57;98916.28;;;9.97;100.00
70815;BME280;58428;49.478;10.986;2022-10-31T04:49:26;98916.78;;;9.99;100.00
70815;BME280;58428;49.478;10.986;2022-10-31T04:51:51;98912.47;;;9.98;100.00
70815;BME280;58428;49.478;10.986;2022-10-31T04:54:17;98913.59;;;9.97;100.00
70815;BME280;58428;49.478;10.986;2022-10-31T04:56:42;98906.44;;;10.01;100.00
70815;BME280;58428;49.478;10.986;2022-10-31T04:59:08;98907.72;;;10.04;100.00
70815;BME280;58428;49.478;10.986;2022-10-31T05:01:33;98905.50;;;10.06;100.00
70815;BME280;58428;49.478;10.986;2022-10-31T05:03:59;98910.69;;;9.94;100.00
70815;BME280;58428;49.478;10.986;2022-10-31T05:06:25;98907.84;;;9.77;100.00
70815;BME280;58428;49.478;10.986;2022-10-31T05:08:52;98900.22;;;9.79;100.00
70815;BME280;58428;49.478;10.986;2022-10-31T05:11:18;98900.88;;;9.76;100.00
70815;BME280;58428;49.478;10.986;2022-10-31T05:13:43;98903.56;;;9.76;100.00
70815;BME280;58428;49.478;10.986;2022-10-31T05:16:09;98905.09;;;9.69;100.00
70815;BME280;58428;49.478;10.986;2022-10-31T05:18:34;98909.03;;;9.63;100.00
70815;BME280;58428;49.478;10.986;2022-10-31T05:20:59;98907.88;;;9.55;100.00
70815;BME280;58428;49.478;10.986;2022-10-31T05:23:25;98906.19;;;9.46;100.00
70815;BME280;58428;49.478;10.986;2022-10-31T05:25:50;98903.94;;;9.40;100.00
70815;BME280;58428;49.478;10.986;2022-10-31T05:28:15;98913.94;;;9.39;100.00
70815;BME280;58428;49.478;10.986;2022-10-31T05:30:42;98901.88;;;9.37;100.00
70815;BME280;58428;49.478;10.986;2022-10-31T05:33:08;98907.66;;;9.30;100.00
70815;BME280;58428;49.478;10.986;2022-10-31T05:35:33;98908.78;;;9.29;100.00
70815;BME280;58428;49.478;10.986;2022-10-31T05:37:59;98905.41;;;9.24;100.00
70815;BME280;58428;49.478;10.986;2022-10-31T05:40:27;98910.56;;;9.34;100.00
70815;BME280;58428;49.478;10.986;2022-10-31T05:42:55;98908.94;;;9.33;100.00
70815;BME280;58428;49.478;10.986;2022-10-31T05:45:21;98916.56;;;9.31;100.00
70815;BME280;58428;49.478;10.986;2022-10-31T05:48:00;98918.75;;;9.29;100.00
70815;BME280;58428;49.478;10.986;2022-10-31T05:50:30;98917.69;;;9.30;100.00
70815;BME280;58428;49.478;10.986;2022-10-31T05:53:04;98912.19;;;9.35;100.00
70815;BME280;58428;49.478;10.986;2022-10-31T05:55:31;98911.84;;;9.36;100.00
70815;BME280;58428;49.478;10.986;2022-10-31T05:57:57;98906.94;;;9.38;100.00
70815;BME280;58428;49.478;10.986;2022-10-31T06:00:23;98905.94;;;9.34;100.00
70815;BME280;58428;49.478;10.986;2022-10-31T06:02:49;98914.53;;;9.36;100.00
70815;BME280;58428;49.478;10.986;2022-10-31T06:05:15;98912.47;;;9.33;100.00
70815;BME280;58428;49.478;10.986;2022-10-31T06:07:42;98907.88;;;9.34;100.00
70815;BME280;58428;49.478;10.986;2022-10-31T06:10:08;98901.66;;;9.33;100.00
70815;BME280;58428;49.478;10.986;2022-10-31T06:12:35;98904.56;;;9.37;100.00
70815;BME280;58428;49.478;10.986;2022-10-31T06:15:07;98902.66;;;9.37;100.00
70815;BME280;58428;49.478;10.986;2022-10-31T06:17:34;98911.53;;;9.38;100.00
70815;BME280;58428;49.478;10.986;2022-10-31T06:20:00;98902.66;;;9.37;100.00
70815;BME280;58428;49.478;10.986;2022-10-31T06:22:26;98908.84;;;9.38;100.00
70815;BME280;58428;49.478;10.986;2022-10-31T06:24:52;98909.84;;;9.42;100.00
70815;BME280;58428;49.478;10.986;2022-10-31T06:27:18;98900.94;;;9.41;100.00
70815;BME280;58428;49.478;10.986;2022-10-31T06:29:46;98905.56;;;9.41;100.00
70815;BME280;58428;49.478;10.986;2022-10-31T06:32:14;98906.63;;;9.40;100.00
70815;BME280;58428;49.478;10.986;2022-10-31T06:34:41;98907.25;;;9.37;100.00
70815;BME280;58428;49.478;10.986;2022-10-31T06:37:09;98909.16;;;9.36;100.00
70815;BME280;58428;49.478;10.986;2022-10-31T06:39:38;98912.19;;;9.35;100.00
70815;BME280;58428;49.478;10.986;2022-10-31T06:42:06;98914.25;;;9.38;100.00
70815;BME280;58428;49.478;10.986;2022-10-31T06:44:32;98921.56;;;9.37;100.00
70815;BME280;58428;49.478;10.986;2022-10-31T06:46:57;98913.47;;;9.37;100.00
70815;BME280;58428;49.478;10.986;2022-10-31T06:49:31;98920.13;;;9.40;100.00
70815;BME280;58428;49.478;10.986;2022-10-31T06:52:02;98924.13;;;9.42;100.00
70815;BME280;58428;49.478;10.986;2022-10-31T06:54:27;98927.00;;;9.46;100.00
70815;BME280;58428;49.478;10.986;2022-10-31T06:56:53;98928.00;;;9.50;100.00
70815;BME280;58428;49.478;10.986;2022-10-31T06:59:18;98924.06;;;9.55;100.00
70815;BME280;58428;49.478;10.986;2022-10-31T07:01:44;98927.44;;;9.61;100.00
70815;BME280;58428;49.478;10.986;2022-10-31T07:04:10;98929.06;;;9.62;100.00
70815;BME280;58428;49.478;10.986;2022-10-31T07:06:35;98927.50;;;9.69;100.00
70815;BME280;58428;49.478;10.986;2022-10-31T07:09:02;98928.00;;;9.71;100.00
70815;BME280;58428;49.478;10.986;2022-10-31T07:11:32;98932.50;;;9.76;100.00
70815;BME280;58428;49.478;10.986;2022-10-31T07:13:58;98927.44;;;9.83;100.00
70815;BME280;58428;49.478;10.986;2022-10-31T07:16:25;98931.31;;;9.90;100.00
70815;BME280;58428;49.478;10.986;2022-10-31T07:18:51;98935.13;;;9.89;100.00
70815;BME280;58428;49.478;10.986;2022-10-31T07:21:17;98940.47;;;10.02;100.00
70815;BME280;58428;49.478;10.986;2022-10-31T07:23:48;98934.50;;;10.14;100.00
70815;BME280;58428;49.478;10.986;2022-10-31T07:26:14;98938.66;;;10.20;100.00
70815;BME280;58428;49.478;10.986;2022-10-31T07:28:40;98934.38;;;10.19;100.00
70815;BME280;58428;49.478;10.986;2022-10-31T07:31:06;98934.22;;;10.24;100.00
70815;BME280;58428;49.478;10.986;2022-10-31T07:33:31;98930.13;;;10.26;100.00
70815;BME280;58428;49.478;10.986;2022-10-31T07:35:57;98940.47;;;10.32;100.00
70815;BME280;58428;49.478;10.986;2022-10-31T07:38:23;98936.84;;;10.37;100.00
70815;BME280;58428;49.478;10.986;2022-10-31T07:40:51;98935.91;;;10.41;100.00
70815;BME280;58428;49.478;10.986;2022-10-31T07:43:18;98938.94;;;10.48;100.00
70815;BME280;58428;49.478;10.986;2022-10-31T07:45:43;98931.03;;;10.60;100.00
70815;BME280;58428;49.478;10.986;2022-10-31T07:48:09;98931.88;;;10.69;100.00
70815;BME280;58428;49.478;10.986;2022-10-31T07:50:35;98933.63;;;10.73;100.00
70815;BME280;58428;49.478;10.986;2022-10-31T07:53:09;98939.69;;;10.79;100.00
70815;BME280;58428;49.478;10.986;2022-10-31T07:55:36;98934.59;;;10.77;100.00
70815;BME280;58428;49.478;10.986;2022-10-31T07:58:04;98935.25;;;10.83;100.00
70815;BME280;58428;49.478;10.986;2022-10-31T08:00:33;98931.91;;;10.86;100.00
70815;BME280;58428;49.478;10.986;2022-10-31T08:03:04;98936.53;;;10.85;100.00
70815;BME280;58428;49.478;10.986;2022-10-31T08:05:32;98934.81;;;10.98;100.00
70815;BME280;58428;49.478;10.986;2022-10-31T08:07:59;98924.63;;;11.03;100.00
70815;BME280;58428;49.478;10.986;2022-10-31T08:10:46;98931.63;;;11.04;100.00
70815;BME280;58428;49.478;10.986;2022-10-31T08:13:31;98930.19;;;11.06;100.00
70815;BME280;58428;49.478;10.986;2022-10-31T08:15:57;98928.00;;;11.17;100.00
70815;BME280;58428;49.478;10.986;2022-10-31T08:18:28;98924.34;;;11.21;100.00
70815;BME280;58428;49.478;10.986;2022-10-31T08:20:54;98933.72;;;11.24;100.00
70815;BME280;58428;49.478;10.986;2022-10-31T08:23:19;98926.56;;;11.28;100.00
70815;BME280;58428;49.478;10.986;2022-10-31T08:25:45;98927.69;;;11.35;100.00
70815;BME280;58428;49.478;10.986;2022-10-31T08:28:13;98919.41;;;11.40;100.00
70815;BME280;58428;49.478;10.986;2022-10-31T08:30:40;98911.00;;;11.50;100.00
70815;BME280;58428;49.478;10.986;2022-10-31T08:33:09;98916.09;;;11.60;100.00
70815;BME280;58428;49.478;10.986;2022-10-31T08:35:35;98915.28;;;11.68;100.00
70815;BME280;58428;49.478;10.986;2022-10-31T08:38:01;98914.00;;;11.74;100.00
70815;BME280;58428;49.478;10.986;2022-10-31T08:40:30;98909.97;;;11.88;100.00
70815;BME280;58428;49.478;10.986;2022-10-31T08:43:02;98911.41;;;11.94;100.00
70815;BME280;58428;49.478;10.986;2022-10-31T08:45:29;98911.53;;;12.06;100.00
70815;BME280;58428;49.478;10.986;2022-10-31T08:48:00;98911.22;;;12.15;100.00
70815;BME280;58428;49.478;10.986;2022-10-31T08:50:27;98897.59;;;12.24;100.00
70815;BME280;58428;49.478;10.986;2022-10-31T08:52:53;98902.16;;;12.40;100.00
70815;BME280;58428;49.478;10.986;2022-10-31T08:55:18;98898.13;;;12.54;100.00
70815;BME280;58428;49.478;10.986;2022-10-31T08:57:45;98900.63;;;12.68;100.00
70815;BME280;58428;49.478;10.986;2022-10-31T09:00:11;98886.94;;;12.85;100.00
70815;BME280;58428;49.478;10.986;2022-10-31T09:02:37;98889.88;;;13.00;100.00
70815;BME280;58428;49.478;10.986;2022-10-31T09:05:04;98890.91;;;13.16;100.00
70815;BME280;58428;49.478;10.986;2022-10-31T09:07:30;98895.16;;;13.25;100.00
70815;BME280;58428;49.478;10.986;2022-10-31T09:09:56;98902.25;;;13.38;100.00
70815;BME280;58428;49.478;10.986;2022-10-31T09:12:23;98889.38;;;13.47;100.00
70815;BME280;58428;49.478;10.986;2022-10-31T09:14:49;98888.63;;;13.58;100.00
70815;BME280;58428;49.478;10.986;2022-10-31T09:17:14;98892.59;;;13.60;100.00
70815;BME280;58428;49.478;10.986;2022-10-31T09:19:41;98892.66;;;13.72;100.00
70815;BME280;58428;49.478;10.986;2022-10-31T09:22:06;98874.00;;;13.83;100.00
70815;BME280;58428;49.478;10.986;2022-10-31T09:24:35;98881.41;;;13.94;100.00
70815;BME280;58428;49.478;10.986;2022-10-31T09:27:00;98877.91;;;13.94;100.00
70815;BME280;58428;49.478;10.986;2022-10-31T09:29:28;98883.41;;;14.05;100.00
70815;BME280;58428;49.478;10.986;2022-10-31T09:31:55;98882.72;;;14.20;100.00
70815;BME280;58428;49.478;10.986;2022-10-31T09:34:21;98880.91;;;14.24;100.00
70815;BME280;58428;49.478;10.986;2022-10-31T09:36:46;98883.09;;;14.31;100.00
70815;BME280;58428;49.478;10.986;2022-10-31T09:39:13;98871.06;;;14.43;100.00
70815;BME280;58428;49.478;10.986;2022-10-31T09:53:09;98871.63;;;15.20;100.00
70815;BME280;58428;49.478;10.986;2022-10-31T09:55:44;98870.09;;;15.34;100.00
70815;BME280;58428;49.478;10.986;2022-10-31T09:58:27;98866.19;;;15.47;100.00
70815;BME280;58428;49.478;10.986;2022-10-31T10:00:56;98860.59;;;15.55;100.00
70815;BME280;58428;49.478;10.986;2022-10-31T10:03:40;98859.19;;;15.61;100.00
70815;BME280;58428;49.478;10.986;2022-10-31T10:06:13;98853.19;;;15.83;100.00
70815;BME280;58428;49.478;10.986;2022-10-31T10:08:40;98853.47;;;15.93;100.00
70815;BME280;58428;49.478;10.986;2022-10-31T10:32:51;98829.31;;;16.68;100.00
70815;BME280;58428;49.478;10.986;2022-10-31T10:35:33;98834.81;;;16.87;100.00
70815;BME280;58428;49.478;10.986;2022-10-31T10:38:17;98833.03;;;16.94;100.00
70815;BME280;58428;49.478;10.986;2022-10-31T10:40:47;98822.97;;;16.98;100.00
70815;BME280;58428;49.478;10.986;2022-10-31T10:43:39;98820.22;;;16.98;100.00
70815;BME280;58428;49.478;10.986;2022-10-31T10:46:27;98823.13;;;17.05;100.00
70815;BME280;58428;49.478;10.986;2022-10-31T10:49:37;98820.75;;;17.04;100.00
70815;BME280;58428;49.478;10.986;2022-10-31T10:52:42;98814.53;;;17.07;100.00
70815;BME280;58428;49.478;10.986;2022-10-31T10:58:14;98804.88;;;17.28;100.00
70815;BME280;58428;49.478;10.986;2022-10-31T11:00:44;98808.13;;;17.33;100.00
70815;BME280;58428;49.478;10.986;2022-10-31T11:03:13;98799.66;;;17.38;100.00
70815;BME280;58428;49.478;10.986;2022-10-31T11:05:55;98798.22;;;17.44;100.00
70815;BME280;58428;49.478;10.986;2022-10-31T11:08:36;98787.38;;;17.51;100.00
70815;BME280;58428;49.478;10.986;2022-10-31T11:11:09;98778.75;;;17.49;100.00
70815;BME280;58428;49.478;10.986;2022-10-31T11:13:40;98775.72;;;17.54;100.00
70815;BME280;58428;49.478;10.986;2022-10-31T11:19:26;98771.81;;;17.74;100.00
70815;BME280;58428;49.478;10.986;2022-10-31T11:22:06;98769.81;;;17.71;100.00
70815;BME280;58428;49.478;10.986;2022-10-31T11:24:37;98768.88;;;17.64;100.00
70815;BME280;58428;49.478;10.986;2022-10-31T11:27:20;98766.69;;;17.72;100.00
70815;BME280;58428;49.478;10.986;2022-10-31T11:29:45;98766.75;;;17.76;100.00
70815;BME280;58428;49.478;10.986;2022-10-31T11:34:45;98751.06;;;17.95;100.00
70815;BME280;58428;49.478;10.986;2022-10-31T11:37:22;98746.66;;;18.09;100.00
70815;BME280;58428;49.478;10.986;2022-10-31T11:39:55;98748.78;;;18.19;100.00
70815;BME280;58428;49.478;10.986;2022-10-31T11:42:24;98744.69;;;18.32;100.00
70815;BME280;58428;49.478;10.986;2022-10-31T11:44:51;98744.84;;;18.42;100.00
70815;BME280;58428;49.478;10.986;2022-10-31T11:47:26;98741.66;;;18.41;100.00
70815;BME280;58428;49.478;10.986;2022-10-31T11:49:53;98733.44;;;18.41;100.00
70815;BME280;58428;49.478;10.986;2022-10-31T11:52:21;98732.78;;;18.47;100.00
70815;BME280;58428;49.478;10.986;2022-10-31T11:54:54;98722.94;;;18.68;100.00
70815;BME280;58428;49.478;10.986;2022-10-31T11:57:47;98714.53;;;18.83;100.00
70815;BME280;58428;49.478;10.986;2022-10-31T12:08:20;98710.84;;;18.73;100.00
70815;BME280;58428;49.478;10.986;2022-10-31T12:13:33;98719.44;;;18.71;100.00
70815;BME280;58428;49.478;10.986;2022-10-31T12:16:08;98711.16;;;18.68;100.00
70815;BME280;58428;49.478;10.986;2022-10-31T12:18:55;98698.31;;;18.72;100.00
70815;BME280;58428;49.478;10.986;2022-10-31T12:25:21;98697.19;;;19.05;100.00
70815;BME280;58428;49.478;10.986;2022-10-31T12:28:12;98694.78;;;19.00;100.00
70815;BME280;58428;49.478;10.986;2022-10-31T12:45:57;98664.69;;;19.43;100.00
70815;BME280;58428;49.478;10.986;2022-10-31T12:49:08;98663.03;;;19.35;100.00
70815;BME280;58428;49.478;10.986;2022-10-31T12:59:45;98648.16;;;19.00;100.00
70815;BME280;58428;49.478;10.986;2022-10-31T13:02:27;98646.25;;;19.04;100.00
70815;BME280;58428;49.478;10.986;2022-10-31T13:05:10;98640.69;;;18.97;100.00
70815;BME280;58428;49.478;10.986;2022-10-31T13:07:59;98637.19;;;19.00;100.00
70815;BME280;58428;49.478;10.986;2022-10-31T13:10:34;98634.06;;;19.02;100.00
70815;BME280;58428;49.478;10.986;2022-10-31T13:13:21;98631.69;;;19.00;100.00
70815;BME280;58428;49.478;10.986;2022-10-31T13:15:54;98635.00;;;19.13;100.00
70815;BME280;58428;49.478;10.986;2022-10-31T13:18:30;98622.00;;;19.10;100.00
70815;BME280;58428;49.478;10.986;2022-10-31T13:21:03;98620.09;;;19.14;100.00
70815;BME280;58428;49.478;10.986;2022-10-31T13:23:36;98611.41;;;19.08;100.00
70815;BME280;58428;49.478;10.986;2022-10-31T13:26:20;98606.28;;;19.03;100.00
70815;BME280;58428;49.478;10.986;2022-10-31T13:29:20;98607.81;;;19.01;100.00
70815;BME280;58428;49.478;10.986;2022-10-31T13:31:48;98604.31;;;19.04;100.00
70815;BME280;58428;49.478;10.986;2022-10-31T13:34:42;98608.25;;;19.03;100.00
70815;BME280;58428;49.478;10.986;2022-10-31T13:37:19;98599.59;;;19.01;100.00
70815;BME280;58428;49.478;10.986;2022-10-31T13:40:18;98603.09;;;18.98;100.00
70815;BME280;58428;49.478;10.986;2022-10-31T13:43:05;98603.22;;;18.79;100.00
70815;BME280;58428;49.478;10.986;2022-10-31T13:45:33;98600.38;;;18.69;100.00
70815;BME280;58428;49.478;10.986;2022-10-31T13:48:41;98591.63;;;18.60;100.00
70815;BME280;58428;49.478;10.986;2022-10-31T13:51:12;98599.53;;;18.65;100.00
70815;BME280;58428;49.478;10.986;2022-10-31T13:53:56;98599.22;;;18.70;100.00
70815;BME280;58428;49.478;10.986;2022-10-31T13:56:27;98590.19;;;18.69;100.00
70815;BME280;58428;49.478;10.986;2022-10-31T14:01:32;98578.13;;;18.74;100.00
70815;BME280;58428;49.478;10.986;2022-10-31T14:07:05;98578.78;;;18.96;100.00
70815;BME280;58428;49.478;10.986;2022-10-31T14:09:33;98571.97;;;18.87;100.00
70815;BME280;58428;49.478;10.986;2022-10-31T14:12:03;98572.28;;;18.79;100.00
70815;BME280;58428;49.478;10.986;2022-10-31T14:14:33;98570.22;;;18.69;100.00
70815;BME280;58428;49.478;10.986;2022-10-31T14:16:59;98570.13;;;18.62;100.00
70815;BME280;58428;49.478;10.986;2022-10-31T14:19:27;98570.09;;;18.58;100.00
70815;BME280;58428;49.478;10.986;2022-10-31T14:21:53;98572.78;;;18.55;100.00
70815;BME280;58428;49.478;10.986;2022-10-31T14:24:35;98562.13;;;18.46;100.00
70815;BME280;58428;49.478;10.986;2022-10-31T14:27:30;98560.00;;;18.37;100.00
70815;BME280;58428;49.478;10.986;2022-10-31T14:29:50;98550.97;;;18.33;100.00
70815;BME280;58428;49.478;10.986;2022-10-31T14:32:23;98554.00;;;18.24;100.00
70815;BME280;58428;49.478;10.986;2022-10-31T14:35:13;98555.13;;;18.20;100.00
70815;BME280;58428;49.478;10.986;2022-10-31T14:50:59;98532.50;;;18.26;100.00
70815;BME280;58428;49.478;10.986;2022-10-31T14:53:44;98522.63;;;18.18;100.00
70815;BME280;58428;49.478;10.986;2022-10-31T14:56:33;98518.69;;;18.16;100.00
70815;BME280;58428;49.478;10.986;2022-10-31T14:59:02;98519.84;;;18.15;100.00
70815;BME280;58428;49.478;10.986;2022-10-31T15:01:31;98523.41;;;17.93;100.00
70815;BME280;58428;49.478;10.986;2022-10-31T15:04:22;98519.38;;;17.84;100.00
70815;BME280;58428;49.478;10.986;2022-10-31T15:07:19;98518.97;;;17.82;100.00
70815;BME280;58428;49.478;10.986;2022-10-31T15:09:56;98516.56;;;17.77;100.00